createdAt,value
2023-05-24T00:01:56.684Z,36995.44
2023-05-24T00:04:25.119Z,37005.41
2023-05-24T00:06:54.727Z,37009.38
2023-05-24T00:09:21.385Z,37043.28
2023-05-24T00:11:47.853Z,37023.34
2023-05-24T00:14:14.376Z,37019.34
2023-05-24T00:16:41.596Z,37027.31
2023-05-24T00:19:11.011Z,37023.34
2023-05-24T00:21:37.555Z,37057.22
2023-05-24T00:24:04.015Z,37037.28
2023-05-24T00:26:30.540Z,37067.19
2023-05-24T00:28:57.444Z,37079.16
2023-05-24T00:31:23.917Z,37059.22
2023-05-24T00:33:50.442Z,37049.25
2023-05-24T00:36:18.457Z,37051.25
2023-05-24T00:38:47.787Z,37055.25
2023-05-24T00:41:16.294Z,37063.22
2023-05-24T00:43:46.086Z,37057.22
2023-05-24T00:46:22.478Z,37035.31
2023-05-24T00:48:50.628Z,37063.22
2023-05-24T00:51:18.081Z,37063.22
2023-05-24T00:53:47.672Z,37087.13
2023-05-24T00:56:15.830Z,37071.19
2023-05-24T00:58:43.033Z,37075.16
2023-05-24T01:01:10.764Z,37085.13
2023-05-24T01:03:37.833Z,37099.09
2023-05-24T01:06:07.218Z,37097.09
2023-05-24T01:08:39.987Z,37083.16
2023-05-24T01:11:18.410Z,37091.13
2023-05-24T01:14:17.298Z,37127.00
2023-05-24T01:17:00.566Z,37083.16
2023-05-24T01:20:06.647Z,37091.13
2023-05-24T01:22:54.677Z,37105.06
2023-05-24T01:25:46.396Z,37117.03
2023-05-24T01:28:13.534Z,37099.09
2023-05-24T01:30:41.783Z,37140.97
2023-05-24T01:33:09.000Z,37131.00
2023-05-24T01:35:40.184Z,37134.97
2023-05-24T01:38:07.168Z,37162.88
2023-05-24T01:40:35.900Z,37134.97
2023-05-24T01:43:13.312Z,37123.00
2023-05-24T01:46:16.294Z,37152.91
2023-05-24T01:49:15.775Z,37138.97
2023-05-24T01:51:57.578Z,37127.00
2023-05-24T01:54:26.366Z,37154.91
2023-05-24T01:56:55.108Z,37190.78
2023-05-24T01:59:24.083Z,37154.91
2023-05-24T02:01:51.549Z,37168.88
2023-05-24T02:04:18.186Z,37166.88
2023-05-24T02:06:44.825Z,37208.75
2023-05-24T02:09:11.300Z,37196.78
2023-05-24T02:11:37.848Z,37196.78
2023-05-24T02:14:04.357Z,37194.78
2023-05-24T02:16:30.878Z,37216.72
2023-05-24T02:18:57.989Z,37206.75
2023-05-24T02:21:25.732Z,37218.69
2023-05-24T02:23:52.421Z,37216.72
2023-05-24T02:26:18.980Z,37226.69
2023-05-24T02:28:45.484Z,37222.69
2023-05-24T02:31:12.079Z,37234.66
2023-05-24T02:33:38.661Z,37268.53
2023-05-24T02:36:05.249Z,37266.56
2023-05-24T02:38:32.093Z,37282.50
2023-05-24T02:40:58.513Z,37272.53
2023-05-24T02:43:25.112Z,37308.41
2023-05-24T02:45:51.655Z,37312.41
2023-05-24T02:48:18.111Z,37322.38
2023-05-24T02:50:44.787Z,37318.38
2023-05-24T02:53:11.794Z,37338.31
2023-05-24T02:55:38.527Z,37378.19
2023-05-24T02:58:05.101Z,37382.19
2023-05-24T03:00:33.077Z,37358.25
2023-05-24T03:03:02.945Z,37394.13
2023-05-24T03:05:29.636Z,37414.06
2023-05-24T03:07:56.712Z,37406.09
2023-05-24T03:10:23.281Z,37408.09
2023-05-24T03:12:50.359Z,37449.97
2023-05-24T03:15:16.789Z,37434.00
2023-05-24T03:17:43.440Z,37430.03
2023-05-24T03:20:11.633Z,37428.03
2023-05-24T03:22:38.541Z,37445.97
2023-05-24T03:25:05.596Z,37426.03
2023-05-24T03:27:32.048Z,37465.91
2023-05-24T03:29:59.238Z,37483.84
2023-05-24T03:32:29.422Z,37535.69
2023-05-24T03:34:57.451Z,37517.75
2023-05-24T03:37:24.445Z,37533.69
2023-05-24T03:39:52.323Z,37513.75
2023-05-24T03:42:48.663Z,37549.66
2023-05-24T03:45:19.531Z,37581.56
2023-05-24T03:47:50.781Z,37577.56
2023-05-24T03:50:18.559Z,37585.53
2023-05-24T03:52:44.981Z,37577.56
2023-05-24T03:55:11.615Z,37573.56
2023-05-24T03:57:38.534Z,37565.59
2023-05-24T04:00:07.202Z,37573.56
2023-05-24T04:02:40.776Z,37599.50
2023-05-24T04:05:10.056Z,37601.50
2023-05-24T04:07:38.186Z,37617.44
2023-05-24T04:10:06.488Z,37613.44
2023-05-24T04:12:33.505Z,37649.34
2023-05-24T04:15:00.771Z,37663.28
2023-05-24T04:17:30.294Z,37681.25
2023-05-24T04:19:56.963Z,37675.25
2023-05-24T04:22:25.637Z,37729.09
2023-05-24T04:24:52.697Z,37776.94
2023-05-24T04:27:19.257Z,37759.00
2023-05-24T04:29:49.755Z,37836.75
2023-05-24T04:32:17.749Z,37858.69
2023-05-24T04:34:45.896Z,37854.72
2023-05-24T04:37:13.882Z,37864.69
2023-05-24T04:39:40.824Z,37892.59
2023-05-24T04:42:07.781Z,37878.63
2023-05-24T04:44:34.212Z,37882.63
2023-05-24T04:47:02.739Z,37864.69
2023-05-24T04:49:29.843Z,37872.66
2023-05-24T04:51:57.034Z,37890.59
2023-05-24T04:54:23.905Z,37912.53
2023-05-24T04:56:50.481Z,37908.53
2023-05-24T04:59:16.910Z,37872.66
2023-05-24T05:01:43.662Z,37906.56
2023-05-24T05:04:10.248Z,37872.66
2023-05-24T05:06:39.611Z,37852.72
2023-05-24T05:09:10.555Z,37880.63
2023-05-24T05:11:37.047Z,37860.69
2023-05-24T05:14:03.617Z,37860.69
2023-05-24T05:16:30.734Z,37846.72
2023-05-24T05:18:58.551Z,37854.72
2023-05-24T05:21:25.063Z,37846.72
2023-05-24T05:23:51.501Z,37856.69
2023-05-24T05:26:17.940Z,37888.59
2023-05-24T05:28:44.770Z,37872.66
2023-05-24T05:31:11.185Z,37896.59
2023-05-24T05:33:37.688Z,37880.63
2023-05-24T05:36:04.239Z,37932.47
2023-05-24T05:38:30.731Z,37908.53
2023-05-24T05:40:57.158Z,37918.50
2023-05-24T05:43:25.063Z,37918.50
2023-05-24T05:45:51.513Z,37922.50
2023-05-24T05:48:17.978Z,37920.50
2023-05-24T05:50:44.499Z,37936.47
2023-05-24T05:53:11.172Z,37916.53
2023-05-24T05:55:37.607Z,37928.47
2023-05-24T05:58:04.138Z,37898.56
2023-05-24T06:00:30.648Z,37928.47
2023-05-24T06:02:57.257Z,37938.44
2023-05-24T06:05:23.782Z,37916.53
2023-05-24T06:07:50.289Z,37880.63
2023-05-24T06:10:16.887Z,37882.63
2023-05-24T06:12:44.770Z,37912.53
2023-05-24T06:15:12.084Z,37932.47
2023-05-24T06:17:38.615Z,37916.53
2023-05-24T06:20:15.591Z,37946.44
2023-05-24T06:22:42.636Z,37924.50
2023-05-24T06:25:09.700Z,37960.38
2023-05-24T06:27:36.214Z,37948.44
2023-05-24T06:30:02.760Z,37988.31
2023-05-24T06:32:29.282Z,37994.28
2023-05-24T06:34:55.805Z,37972.34
2023-05-24T06:37:25.294Z,37984.31
2023-05-24T06:39:51.781Z,37996.28
2023-05-24T06:42:18.267Z,37988.31
2023-05-24T06:44:46.005Z,37988.31
2023-05-24T06:47:12.602Z,38004.25
2023-05-24T06:49:39.162Z,37988.31
2023-05-24T06:52:07.788Z,37992.28
2023-05-24T06:54:35.099Z,37952.41
2023-05-24T06:57:03.714Z,37960.38
2023-05-24T06:59:30.346Z,37972.34
2023-05-24T07:01:58.929Z,37972.34
2023-05-24T07:04:26.819Z,37952.41
2023-05-24T07:06:53.248Z,37962.38
2023-05-24T07:09:19.903Z,37992.28
2023-05-24T07:11:47.466Z,38004.25
2023-05-24T07:14:13.940Z,38000.28
2023-05-24T07:16:40.511Z,37952.41
2023-05-24T07:19:07.350Z,38000.28
2023-05-24T07:21:33.836Z,38008.25
2023-05-24T07:24:00.298Z,38012.22
2023-05-24T07:26:26.768Z,38000.28
2023-05-24T07:28:53.310Z,38048.13
2023-05-24T07:31:19.823Z,38016.22
2023-05-24T07:33:46.267Z,38036.16
2023-05-24T07:36:12.835Z,38044.13
2023-05-24T07:38:39.295Z,38080.03
2023-05-24T07:41:06.850Z,38032.16
2023-05-24T07:43:33.514Z,38010.25
2023-05-24T07:46:00.046Z,38012.22
2023-05-24T07:48:26.692Z,38036.16
2023-05-24T07:50:53.147Z,38044.13
2023-05-24T07:53:19.953Z,38026.19
2023-05-24T07:55:46.552Z,38042.13
2023-05-24T07:58:12.977Z,38088.00
2023-05-24T08:00:39.600Z,38094.00
2023-05-24T08:03:06.404Z,38080.03
2023-05-24T08:05:32.976Z,38099.97
2023-05-24T08:07:59.462Z,38072.06
2023-05-24T08:10:26.304Z,37988.31
2023-05-24T08:12:55.155Z,37968.38
2023-05-24T08:15:21.761Z,37974.34
2023-05-24T08:17:48.805Z,38000.28
2023-05-24T08:20:15.885Z,37976.34
2023-05-24T08:22:43.129Z,38000.28
2023-05-24T08:25:11.506Z,38000.28
2023-05-24T08:27:38.210Z,37998.28
2023-05-24T08:30:05.620Z,38002.25
2023-05-24T08:32:32.755Z,37984.31
2023-05-24T08:35:14.750Z,37918.50
2023-05-24T08:37:46.121Z,37944.44
2023-05-24T08:40:12.811Z,37960.38
2023-05-24T08:42:40.647Z,38002.25
2023-05-24T08:45:14.856Z,38018.22
2023-05-24T08:47:42.594Z,38008.25
2023-05-24T08:50:09.825Z,38032.16
2023-05-24T08:52:36.841Z,37936.47
2023-05-24T08:55:07.366Z,37936.47
2023-05-24T08:57:35.746Z,37976.34
2023-05-24T09:00:02.272Z,37950.41
2023-05-24T09:02:30.222Z,37952.41
2023-05-24T09:04:57.174Z,37960.38
2023-05-24T09:07:24.169Z,37954.41
2023-05-24T09:10:06.896Z,37976.34
2023-05-24T09:12:38.051Z,38008.25
2023-05-24T09:15:07.190Z,37982.31
2023-05-24T09:17:38.086Z,37968.38
2023-05-24T09:20:11.413Z,37990.28
2023-05-24T09:22:40.893Z,37920.50
2023-05-24T09:25:10.183Z,37914.53
2023-05-24T09:27:37.416Z,37878.63
2023-05-24T09:30:10.049Z,37836.75
2023-05-24T09:32:36.540Z,37880.63
2023-05-24T09:35:03.154Z,37880.63
2023-05-24T09:37:32.522Z,37892.59
2023-05-24T09:39:59.577Z,37940.44
2023-05-24T09:42:28.247Z,37928.47
2023-05-24T09:45:11.946Z,37956.41
2023-05-24T09:47:41.953Z,37930.47
2023-05-24T09:50:17.720Z,37900.56
2023-05-24T09:52:45.036Z,37868.66
2023-05-24T09:55:16.374Z,37912.53
2023-05-24T09:57:52.050Z,37932.47
2023-05-24T10:00:23.868Z,37938.44
2023-05-24T10:03:13.898Z,37900.56
2023-05-24T10:05:45.511Z,37946.44
2023-05-24T10:08:14.220Z,37920.50
2023-05-24T10:10:42.385Z,37896.59
2023-05-24T10:13:10.043Z,37908.53
2023-05-24T10:15:36.585Z,37910.53
2023-05-24T10:18:10.413Z,37936.47
2023-05-24T10:20:40.984Z,37934.47
2023-05-24T10:23:10.289Z,37928.47
2023-05-24T10:25:41.409Z,37962.38
2023-05-24T10:28:12.537Z,37992.28
2023-05-24T10:30:48.203Z,38024.19
2023-05-24T10:33:19.334Z,37948.44
2023-05-24T10:35:46.186Z,37912.53
2023-05-24T10:38:12.712Z,37890.59
2023-05-24T10:40:42.952Z,37912.53
2023-05-24T10:43:10.308Z,37940.44
2023-05-24T10:45:40.393Z,37898.56
2023-05-24T10:48:13.262Z,37888.59
2023-05-24T10:50:41.895Z,37906.56
2023-05-24T10:53:15.583Z,37872.66
2023-05-24T10:55:55.784Z,37928.47
2023-05-24T10:58:48.805Z,37982.31
2023-05-24T11:01:29.558Z,37952.41
2023-05-24T11:04:15.173Z,37928.47
2023-05-24T11:06:55.877Z,37940.44
2023-05-24T11:09:23.138Z,37942.44
2023-05-24T11:11:54.079Z,37938.44
2023-05-24T11:14:24.330Z,37972.34
2023-05-24T11:16:51.917Z,37992.28
2023-05-24T11:19:20.683Z,37916.53
2023-05-24T11:21:48.797Z,37950.41
2023-05-24T11:24:18.907Z,37950.41
2023-05-24T11:26:45.950Z,37930.47
2023-05-24T11:29:22.741Z,37920.50
2023-05-24T11:31:54.117Z,37900.56
2023-05-24T11:34:21.478Z,37892.59
2023-05-24T11:36:48.935Z,37890.59
2023-05-24T11:39:16.340Z,37930.47
2023-05-24T11:41:43.305Z,37900.56
2023-05-24T11:44:11.033Z,37888.59
2023-05-24T11:46:40.459Z,37826.78
2023-05-24T11:49:07.220Z,37824.81
2023-05-24T11:51:35.681Z,37800.88
2023-05-24T11:54:02.136Z,37812.84
2023-05-24T11:56:33.928Z,37812.84
2023-05-24T11:59:14.158Z,37808.84
2023-05-24T12:01:40.693Z,37828.78
2023-05-24T12:04:09.433Z,37812.84
2023-05-24T12:06:41.224Z,37822.81
2023-05-24T12:09:10.292Z,37802.88
2023-05-24T12:11:44.537Z,37796.88
2023-05-24T12:14:15.526Z,37772.97
2023-05-24T12:16:43.508Z,37798.88
2023-05-24T12:19:31.641Z,37820.81
2023-05-24T12:22:00.963Z,37770.97
2023-05-24T12:24:28.377Z,37822.81
2023-05-24T12:27:03.281Z,37828.78
2023-05-24T12:29:38.492Z,37812.84
2023-05-24T12:32:05.823Z,37864.69
2023-05-24T12:34:32.698Z,37900.56
2023-05-24T12:36:59.747Z,37884.63
2023-05-24T12:39:32.150Z,37904.56
2023-05-24T12:42:01.442Z,37960.38
2023-05-24T12:44:29.254Z,37966.38
2023-05-24T12:46:58.142Z,37952.41
2023-05-24T12:49:25.607Z,38080.03
2023-05-24T12:51:54.241Z,38131.88
2023-05-24T12:54:24.251Z,38139.84
2023-05-24T12:56:53.461Z,38167.78
2023-05-24T12:59:22.099Z,38157.81
2023-05-24T13:01:52.388Z,38131.88
2023-05-24T13:04:21.310Z,38095.97
2023-05-24T13:06:48.614Z,38157.81
2023-05-24T13:09:17.893Z,38095.97
2023-05-24T13:11:44.312Z,38123.91
2023-05-24T13:14:12.004Z,38139.84
2023-05-24T13:16:38.479Z,38123.91
2023-05-24T13:19:05.092Z,38088.00
2023-05-24T13:21:31.620Z,38084.00
2023-05-24T13:23:58.084Z,38111.94
2023-05-24T13:26:24.597Z,38101.97
2023-05-24T13:29:21.843Z,38123.91
2023-05-24T13:31:38.806Z,38099.97
2023-05-24T13:34:06.203Z,38097.97
2023-05-24T13:36:33.580Z,38123.91
2023-05-24T13:39:13.320Z,38095.97
2023-05-24T13:41:41.184Z,38076.03
2023-05-24T13:44:08.541Z,38072.06
2023-05-24T13:46:36.254Z,38060.09
2023-05-24T13:49:03.337Z,38095.97
2023-05-24T13:51:30.630Z,38036.16
2023-05-24T13:53:57.452Z,38024.19
2023-05-24T13:56:24.783Z,37992.28
2023-05-24T13:58:52.096Z,37992.28
2023-05-24T14:01:18.706Z,37976.34
2023-05-24T14:03:45.184Z,37922.50
2023-05-24T14:06:11.887Z,37908.53
2023-05-24T14:08:38.954Z,37920.50
2023-05-24T14:11:05.620Z,37946.44
2023-05-24T14:14:29.776Z,37940.44
2023-05-24T14:16:19.810Z,37908.53
2023-05-24T14:18:48.786Z,37902.56
2023-05-24T14:21:15.383Z,37896.59
2023-05-24T14:23:42.018Z,37892.59
2023-05-24T14:26:08.596Z,37912.53
2023-05-24T14:28:35.112Z,37904.56
2023-05-24T14:31:02.124Z,37924.50
2023-05-24T14:33:28.769Z,37928.47
2023-05-24T14:35:55.285Z,37922.50
2023-05-24T14:38:23.750Z,37956.41
2023-05-24T14:40:51.134Z,37914.53
2023-05-24T14:43:18.510Z,37918.50
2023-05-24T14:45:45.217Z,37950.41
2023-05-24T14:48:12.803Z,37922.50
2023-05-24T14:50:40.695Z,37952.41
2023-05-24T14:53:10.879Z,37968.38
2023-05-24T14:55:38.356Z,37932.47
2023-05-24T14:58:09.020Z,37946.44
2023-05-24T15:00:36.482Z,37962.38
2023-05-24T15:03:03.200Z,37914.53
2023-05-24T15:05:30.151Z,37936.47
2023-05-24T15:07:57.278Z,37924.50
2023-05-24T15:10:23.749Z,37936.47
2023-05-24T15:12:51.830Z,37908.53
2023-05-24T15:15:18.933Z,37898.56
2023-05-24T15:17:46.419Z,37884.63
2023-05-24T15:20:12.964Z,37916.53
2023-05-24T15:22:39.938Z,37902.56
2023-05-24T15:25:07.306Z,37932.47
2023-05-24T15:27:34.128Z,37892.59
2023-05-24T15:30:00.819Z,37954.41
2023-05-24T15:32:27.281Z,37888.59
2023-05-24T15:34:53.761Z,37922.50
2023-05-24T15:37:21.725Z,37846.72
2023-05-24T15:39:49.127Z,37840.75
2023-05-24T15:42:16.079Z,37820.81
2023-05-24T15:44:42.540Z,37850.72
2023-05-24T15:47:09.233Z,37844.75
2023-05-24T15:49:35.687Z,37836.75
2023-05-24T15:52:04.733Z,37852.72
2023-05-24T15:54:32.085Z,37872.66
2023-05-24T15:57:00.446Z,37856.69
2023-05-24T15:59:27.096Z,37860.69
2023-05-24T16:01:55.015Z,37836.75
2023-05-24T16:04:21.577Z,37860.69
2023-05-24T16:06:48.118Z,37888.59
2023-05-24T16:09:14.791Z,37878.63
2023-05-24T16:11:41.431Z,37892.59
2023-05-24T16:14:08.372Z,37904.56
2023-05-24T16:16:36.554Z,37872.66
2023-05-24T16:19:03.042Z,37856.69
2023-05-24T16:21:29.478Z,37852.72
2023-05-24T16:23:56.035Z,37858.69
2023-05-24T16:26:22.483Z,37852.72
2023-05-24T16:28:49.898Z,37884.63
2023-05-24T16:31:16.504Z,37900.56
2023-05-24T16:33:43.063Z,37884.63
2023-05-24T16:36:09.518Z,37832.78
2023-05-24T16:38:37.336Z,37852.72
2023-05-24T16:41:05.968Z,37826.78
2023-05-24T16:43:33.001Z,37902.56
2023-05-24T16:46:00.649Z,37934.47
2023-05-24T16:48:31.420Z,37920.50
2023-05-24T16:50:58.338Z,37872.66
2023-05-24T16:53:26.621Z,37860.69
2023-05-24T16:55:54.648Z,37890.59
2023-05-24T16:58:22.261Z,37904.56
2023-05-24T17:00:48.981Z,37874.66
2023-05-24T17:03:15.637Z,37874.66
2023-05-24T17:05:42.418Z,37846.72
2023-05-24T17:08:08.878Z,37852.72
2023-05-24T17:10:35.510Z,37884.63
2023-05-24T17:13:02.203Z,37844.75
2023-05-24T17:15:28.631Z,37860.69
2023-05-24T17:17:56.020Z,37852.72
2023-05-24T17:20:22.732Z,37852.72
2023-05-24T17:22:49.430Z,37828.78
2023-05-24T17:25:16.542Z,37808.84
2023-05-24T17:27:42.991Z,37816.81
2023-05-24T17:30:09.987Z,37832.78
2023-05-24T17:32:36.741Z,37824.81
2023-05-24T17:35:03.701Z,37796.88
2023-05-24T17:37:30.486Z,37824.81
2023-05-24T17:39:56.959Z,37800.88
2023-05-24T17:42:24.707Z,37816.81
2023-05-24T17:44:51.180Z,37804.84
2023-05-24T17:47:17.723Z,37786.91
2023-05-24T17:49:44.570Z,37772.97
2023-05-24T17:52:13.931Z,37753.03
2023-05-24T17:54:40.668Z,37784.91
2023-05-24T17:57:07.701Z,37800.88
2023-05-24T17:59:34.165Z,37792.91
2023-05-24T18:02:01.010Z,37828.78
2023-05-24T18:04:27.714Z,37776.94
2023-05-24T18:06:55.268Z,37766.97
2023-05-24T18:09:22.017Z,37774.94
2023-05-24T18:11:49.496Z,37788.91
2023-05-24T18:14:16.031Z,37824.81
2023-05-24T18:16:42.941Z,37792.91
2023-05-24T18:19:09.733Z,37784.91
2023-05-24T18:21:36.731Z,37764.97
2023-05-24T18:24:03.268Z,37761.00
2023-05-24T18:26:30.019Z,37768.97
2023-05-24T18:28:56.529Z,37788.91
2023-05-24T18:31:23.034Z,37786.91
2023-05-24T18:33:49.737Z,37776.94
2023-05-24T18:36:16.449Z,37788.91
2023-05-24T18:38:44.779Z,37808.84
2023-05-24T18:41:12.128Z,37790.91
2023-05-24T18:43:39.525Z,37772.97
2023-05-24T18:46:06.338Z,37776.94
2023-05-24T18:48:32.786Z,37784.91
2023-05-24T18:50:59.309Z,37840.75
2023-05-24T18:53:25.917Z,37836.75
2023-05-24T18:55:52.433Z,37804.84
2023-05-24T18:58:18.840Z,37800.88
2023-05-24T19:00:45.384Z,37792.91
2023-05-24T19:03:12.088Z,37808.84
2023-05-24T19:05:41.480Z,37804.84
2023-05-24T19:08:09.913Z,37794.88
2023-05-24T19:10:36.808Z,37808.84
2023-05-24T19:13:03.372Z,37804.84
2023-05-24T19:15:29.878Z,37796.88
2023-05-24T19:17:57.720Z,37816.81
2023-05-24T19:20:24.410Z,37832.78
2023-05-24T19:22:50.904Z,37812.84
2023-05-24T19:25:17.450Z,37780.94
2023-05-24T19:27:57.926Z,37786.91
2023-05-24T19:30:25.436Z,37808.84
2023-05-24T19:32:52.192Z,37832.78
2023-05-24T19:35:18.663Z,37792.91
2023-05-24T19:37:45.197Z,37776.94
2023-05-24T19:40:11.763Z,37816.81
2023-05-24T19:42:38.206Z,37780.94
2023-05-24T19:45:05.201Z,37804.84
2023-05-24T19:47:31.787Z,37778.94
2023-05-24T19:49:58.385Z,37776.94
2023-05-24T19:52:24.949Z,37800.88
2023-05-24T19:54:51.418Z,37796.88
2023-05-24T19:57:17.861Z,37772.97
2023-05-24T19:59:44.363Z,37776.94
2023-05-24T20:02:11.305Z,37774.94
2023-05-24T20:04:41.642Z,37766.97
2023-05-24T20:07:08.808Z,37764.97
2023-05-24T20:09:36.000Z,37749.03
2023-05-24T20:12:02.674Z,37761.00
2023-05-24T20:14:31.356Z,37753.03
2023-05-24T20:16:58.505Z,37735.06
2023-05-24T20:19:26.123Z,37729.09
2023-05-24T20:21:52.679Z,37729.09
2023-05-24T20:24:19.110Z,37703.16
2023-05-24T20:26:45.587Z,37739.06
2023-05-24T20:29:12.039Z,37713.13
2023-05-24T20:31:38.601Z,37721.13
2023-05-24T20:34:05.218Z,37707.16
2023-05-24T20:36:32.657Z,37733.09
2023-05-24T20:38:59.106Z,37721.13
2023-05-24T20:41:26.401Z,37725.09
2023-05-24T20:43:52.830Z,37747.03
2023-05-24T20:46:19.350Z,37683.22
2023-05-24T20:48:46.230Z,37691.22
2023-05-24T20:51:12.680Z,37733.09
2023-05-24T20:53:39.297Z,37711.16
2023-05-24T20:56:05.933Z,37699.19
2023-05-24T20:58:32.428Z,37685.22
2023-05-24T21:00:59.263Z,37727.09
2023-05-24T21:03:25.874Z,37691.22
2023-05-24T21:05:52.324Z,37697.19
2023-05-24T21:08:18.770Z,37719.13
2023-05-24T21:10:45.281Z,37695.19
2023-05-24T21:13:11.820Z,37669.28
2023-05-24T21:15:38.302Z,37687.22
2023-05-24T21:18:05.196Z,37669.28
2023-05-24T21:20:31.733Z,37653.31
2023-05-24T21:22:58.515Z,37665.28
2023-05-24T21:25:25.046Z,37661.31
2023-05-24T21:27:51.830Z,37689.22
2023-05-24T21:30:18.274Z,37665.28
2023-05-24T21:32:45.338Z,37667.28
2023-05-24T21:35:11.788Z,37701.19
2023-05-24T21:37:38.474Z,37661.31
2023-05-24T21:40:06.166Z,37685.22
2023-05-24T21:42:32.594Z,37701.19
2023-05-24T21:44:59.002Z,37697.19
2023-05-24T21:47:25.478Z,37729.09
2023-05-24T21:49:51.909Z,37699.19
2023-05-24T21:52:19.384Z,37687.22
2023-05-24T21:54:45.974Z,37697.19
2023-05-24T21:57:12.501Z,37701.19
2023-05-24T21:59:38.946Z,37713.13
2023-05-24T22:02:05.693Z,37725.09
2023-05-24T22:04:32.393Z,37729.09
2023-05-24T22:06:59.172Z,37713.13
2023-05-24T22:09:25.694Z,37713.13
2023-05-24T22:11:52.557Z,37705.16
2023-05-24T22:14:19.293Z,37705.16
2023-05-24T22:16:45.851Z,37637.38
2023-05-24T22:19:14.942Z,37689.22
2023-05-24T22:21:43.535Z,37689.22
2023-05-24T22:24:10.380Z,37683.22
2023-05-24T22:26:37.119Z,37703.16
2023-05-24T22:29:04.230Z,37661.31
2023-05-24T22:31:33.160Z,37679.25
2023-05-24T22:34:02.246Z,37685.22
2023-05-24T22:36:33.236Z,37689.22
2023-05-24T22:39:02.666Z,37673.25
2023-05-24T22:41:29.389Z,37655.31
2023-05-24T22:43:57.100Z,37675.25
2023-05-24T22:46:24.244Z,37641.38
2023-05-24T22:48:52.579Z,37653.31
2023-05-24T22:51:19.971Z,37673.25
2023-05-24T22:53:47.408Z,37631.41
2023-05-24T22:56:14.029Z,37647.34
2023-05-24T22:58:40.532Z,37669.28
2023-05-24T23:01:07.526Z,37653.31
2023-05-24T23:03:34.025Z,37645.34
2023-05-24T23:06:04.031Z,37665.28
2023-05-24T23:08:34.297Z,37661.31
2023-05-24T23:11:01.120Z,37639.38
2023-05-24T23:13:35.791Z,37647.34
2023-05-24T23:16:02.544Z,37625.41
2023-05-24T23:18:29.111Z,37641.38
2023-05-24T23:20:56.074Z,37641.38
2023-05-24T23:23:22.992Z,37617.44
2023-05-24T23:25:53.259Z,37645.34
2023-05-24T23:28:19.849Z,37649.34
2023-05-24T23:30:46.463Z,37641.38
2023-05-24T23:33:12.973Z,37649.34
2023-05-24T23:35:39.877Z,37637.38
2023-05-24T23:38:06.785Z,37649.34
2023-05-24T23:40:34.301Z,37649.34
2023-05-24T23:43:00.787Z,37637.38
2023-05-24T23:45:27.350Z,37645.34
2023-05-24T23:47:53.928Z,37613.44
2023-05-24T23:50:22.363Z,37641.38
2023-05-24T23:52:49.390Z,37573.56
2023-05-24T23:55:16.244Z,37627.41
2023-05-24T23:57:43.086Z,37619.44
